PWSweather.com
Personal Weather Stations
Station Observations
WD4JKH
Forsyth, GA 31029

Forsyth, GA 31029

Lat: 33.033225, Lon: -83.927995

Elevation: 709

Station Type: Davis Vantage VUE

High Low Average
Temperature 92.2°F33.4°C 71.9°F22.2°C 79.5°F26.4°C
Dew Point 77.4°F25.2°C 70.4°F21.3°C 73.8°F23.2°C
Winds 5.7 mph 9.2 kmh Calm Calm 2.0 mph SW3.2 kmh SW
Wind Gusts 18.0 mph29.0 kmh 1.0 mph1.6 kmh 5.0 mph8.0 kmh
Humidity 97% 55% 84%
Pressure 30.07 in1018.3 mb 29.98 in1015.2 mb -
Precipitation 0.85 in21.6 mm - -
Hour Temp Dew Point Humidity Winds Wind Gusts Pressure Precip Precip Rate Daily Precip Total
12:02 AM 79.0°F26.1°C 72.8°F22.7°C 81% 1.4 mph WNW2.3 kmh WNW 3.0 mph4.8 kmh 30.06 in1017.9 mb 0.00 in0.0 mm 0.00 in0.0 mm 0.00 in0.0 mm
12:07 AM 78.9°F26.1°C 72.7°F22.6°C 81% 1.1 mph WNW1.8 kmh WNW 3.0 mph4.8 kmh 30.06 in1017.9 mb 0.00 in0.0 mm 0.00 in0.0 mm 0.00 in0.0 mm
12:12 AM 78.8°F26.0°C 72.8°F22.7°C 82% 1.1 mph NW1.8 kmh NW 3.0 mph4.8 kmh 30.06 in1017.9 mb 0.00 in0.0 mm 0.00 in0.0 mm 0.00 in0.0 mm
12:15 AM 78.8°F26.0°C 72.9°F22.7°C 82% 1.4 mph NW2.3 kmh NW 3.0 mph4.8 kmh 30.06 in1017.9 mb 0.00 in0.0 mm 0.00 in0.0 mm 0.00 in0.0 mm
12:20 AM 78.7°F25.9°C 72.8°F22.7°C 82% 1.0 mph W1.6 kmh W 3.0 mph4.8 kmh 30.06 in1017.9 mb 0.00 in0.0 mm 0.00 in0.0 mm 0.00 in0.0 mm
12:25 AM 78.6°F25.9°C 72.7°F22.6°C 82% 1.0 mph WSW1.6 kmh WSW 3.0 mph4.8 kmh 30.06 in1017.9 mb 0.00 in0.0 mm 0.00 in0.0 mm 0.00 in0.0 mm
12:30 AM 78.6°F25.9°C 72.7°F22.6°C 82% 1.5 mph W2.4 kmh W 3.0 mph4.8 kmh 30.06 in1017.9 mb 0.00 in0.0 mm 0.00 in0.0 mm 0.00 in0.0 mm
12:35 AM 78.6°F25.9°C 72.6°F22.6°C 82% 1.6 mph WNW2.6 kmh WNW 3.0 mph4.8 kmh 30.06 in1017.9 mb 0.00 in0.0 mm 0.00 in0.0 mm 0.00 in0.0 mm
12:40 AM 78.6°F25.9°C 72.7°F22.6°C 82% 1.6 mph WNW2.6 kmh WNW 3.0 mph4.8 kmh 30.06 in1017.9 mb 0.00 in0.0 mm 0.00 in0.0 mm 0.00 in0.0 mm
12:45 AM 78.6°F25.9°C 72.7°F22.6°C 82% 1.6 mph WNW2.6 kmh WNW 3.0 mph4.8 kmh 30.06 in1017.9 mb 0.00 in0.0 mm 0.00 in0.0 mm 0.00 in0.0 mm
12:50 AM 78.5°F25.8°C 72.6°F22.6°C 82% 1.0 mph W1.6 kmh W 3.0 mph4.8 kmh 30.05 in1017.6 mb 0.00 in0.0 mm 0.00 in0.0 mm 0.00 in0.0 mm
12:55 AM 78.5°F25.8°C 72.6°F22.6°C 82% 2.6 mph WNW4.2 kmh WNW 5.0 mph8.0 kmh 30.06 in1017.9 mb 0.00 in0.0 mm 0.00 in0.0 mm 0.00 in0.0 mm
01:00 AM 78.4°F25.8°C 72.5°F22.5°C 82% 1.8 mph WNW2.9 kmh WNW 5.0 mph8.0 kmh 30.05 in1017.6 mb 0.00 in0.0 mm 0.00 in0.0 mm 0.00 in0.0 mm
01:05 AM 78.4°F25.8°C 72.8°F22.7°C 83% 1.4 mph WNW2.3 kmh WNW 5.0 mph8.0 kmh 30.05 in1017.6 mb 0.00 in0.0 mm 0.00 in0.0 mm 0.00 in0.0 mm
01:10 AM 78.3°F25.7°C 72.7°F22.6°C 83% 2.1 mph WNW3.4 kmh WNW 5.0 mph8.0 kmh 30.05 in1017.6 mb 0.00 in0.0 mm 0.00 in0.0 mm 0.00 in0.0 mm
01:15 AM 78.3°F25.7°C 72.8°F22.7°C 83% 2.0 mph WNW3.2 kmh WNW 5.0 mph8.0 kmh 30.05 in1017.6 mb 0.00 in0.0 mm 0.00 in0.0 mm 0.00 in0.0 mm
01:20 AM 78.3°F25.7°C 72.8°F22.7°C 83% 1.9 mph WNW3.1 kmh WNW 5.0 mph8.0 kmh 30.04 in1017.3 mb 0.00 in0.0 mm 0.00 in0.0 mm 0.00 in0.0 mm
01:25 AM 78.3°F25.7°C 72.4°F22.4°C 82% 1.5 mph W2.4 kmh W 5.0 mph8.0 kmh 30.04 in1017.3 mb 0.00 in0.0 mm 0.00 in0.0 mm 0.00 in0.0 mm
01:30 AM 78.3°F25.7°C 72.4°F22.4°C 82% 1.3 mph W2.1 kmh W 4.0 mph6.4 kmh 30.05 in1017.6 mb 0.00 in0.0 mm 0.00 in0.0 mm 0.00 in0.0 mm
01:36 AM 78.3°F25.7°C 72.4°F22.4°C 82% 1.7 mph WNW2.7 kmh WNW 4.0 mph6.4 kmh 30.05 in1017.6 mb 0.00 in0.0 mm 0.00 in0.0 mm 0.00 in0.0 mm
01:40 AM 78.4°F25.8°C 72.5°F22.5°C 82% 1.6 mph W2.6 kmh W 5.0 mph8.0 kmh 30.05 in1017.6 mb 0.00 in0.0 mm 0.00 in0.0 mm 0.00 in0.0 mm
01:46 AM 78.3°F25.7°C 72.4°F22.4°C 82% 1.2 mph WSW1.9 kmh WSW 5.0 mph8.0 kmh 30.05 in1017.6 mb 0.00 in0.0 mm 0.00 in0.0 mm 0.00 in0.0 mm
01:50 AM 78.2°F25.7°C 72.3°F22.4°C 82% 1.2 mph W1.9 kmh W 5.0 mph8.0 kmh 30.05 in1017.6 mb 0.00 in0.0 mm 0.00 in0.0 mm 0.00 in0.0 mm
01:55 AM 78.1°F25.6°C 72.6°F22.6°C 83% 1.7 mph W2.7 kmh W 5.0 mph8.0 kmh 30.05 in1017.6 mb 0.00 in0.0 mm 0.00 in0.0 mm 0.00 in0.0 mm
02:01 AM 78.0°F25.6°C 72.5°F22.5°C 83% 1.6 mph W2.6 kmh W 5.0 mph8.0 kmh 30.05 in1017.6 mb 0.00 in0.0 mm 0.00 in0.0 mm 0.00 in0.0 mm
02:06 AM 77.7°F25.4°C 72.2°F22.3°C 83% 1.5 mph W2.4 kmh W 5.0 mph8.0 kmh 30.04 in1017.3 mb 0.00 in0.0 mm 0.00 in0.0 mm 0.00 in0.0 mm
02:11 AM 77.6°F25.3°C 72.4°F22.4°C 84% 1.4 mph W2.3 kmh W 5.0 mph8.0 kmh 30.04 in1017.3 mb 0.00 in0.0 mm 0.00 in0.0 mm 0.00 in0.0 mm
02:16 AM 77.5°F25.3°C 72.3°F22.4°C 84% 1.1 mph W1.8 kmh W 3.0 mph4.8 kmh 30.04 in1017.3 mb 0.00 in0.0 mm 0.00 in0.0 mm 0.00 in0.0 mm
02:21 AM 77.6°F25.3°C 72.1°F22.3°C 83% 1.9 mph WNW3.1 kmh WNW 5.0 mph8.0 kmh 30.04 in1017.3 mb 0.00 in0.0 mm 0.00 in0.0 mm 0.00 in0.0 mm
02:26 AM 77.7°F25.4°C 72.2°F22.3°C 83% 1.9 mph WNW3.1 kmh WNW 5.0 mph8.0 kmh 30.03 in1016.9 mb 0.00 in0.0 mm 0.00 in0.0 mm 0.00 in0.0 mm
02:31 AM 77.9°F25.5°C 72.0°F22.2°C 82% 1.8 mph W2.9 kmh W 5.0 mph8.0 kmh 30.04 in1017.3 mb 0.00 in0.0 mm 0.00 in0.0 mm 0.00 in0.0 mm
02:36 AM 78.1°F25.6°C 71.9°F22.2°C 81% 1.5 mph WNW2.4 kmh WNW 5.0 mph8.0 kmh 30.03 in1016.9 mb 0.00 in0.0 mm 0.00 in0.0 mm 0.00 in0.0 mm
02:41 AM 78.1°F25.6°C 71.9°F22.2°C 81% 1.2 mph WNW1.9 kmh WNW 4.0 mph6.4 kmh 30.03 in1016.9 mb 0.00 in0.0 mm 0.00 in0.0 mm 0.00 in0.0 mm
02:46 AM 78.2°F25.7°C 72.0°F22.2°C 81% 1.3 mph W2.1 kmh W 4.0 mph6.4 kmh 30.03 in1016.9 mb 0.00 in0.0 mm 0.00 in0.0 mm 0.00 in0.0 mm
02:51 AM 78.4°F25.8°C 71.8°F22.1°C 80% 2.4 mph W3.9 kmh W 5.0 mph8.0 kmh 30.03 in1016.9 mb 0.00 in0.0 mm 0.00 in0.0 mm 0.00 in0.0 mm
02:56 AM 78.5°F25.8°C 71.8°F22.1°C 80% 2.4 mph WNW3.9 kmh WNW 5.0 mph8.0 kmh 30.02 in1016.6 mb 0.00 in0.0 mm 0.00 in0.0 mm 0.00 in0.0 mm
03:01 AM 78.6°F25.9°C 72.0°F22.2°C 80% 1.8 mph WNW2.9 kmh WNW 5.0 mph8.0 kmh 30.02 in1016.6 mb 0.00 in0.0 mm 0.00 in0.0 mm 0.00 in0.0 mm
03:06 AM 78.7°F25.9°C 71.8°F22.1°C 79% 2.5 mph WNW4.0 kmh WNW 5.0 mph8.0 kmh 30.03 in1016.9 mb 0.00 in0.0 mm 0.00 in0.0 mm 0.00 in0.0 mm
03:11 AM 78.8°F26.0°C 71.9°F22.2°C 79% 1.7 mph W2.7 kmh W 6.0 mph9.7 kmh 30.02 in1016.6 mb 0.00 in0.0 mm 0.00 in0.0 mm 0.00 in0.0 mm
03:16 AM 78.7°F25.9°C 71.8°F22.1°C 79% 1.1 mph W1.8 kmh W 6.0 mph9.7 kmh 30.02 in1016.6 mb 0.00 in0.0 mm 0.00 in0.0 mm 0.00 in0.0 mm
03:21 AM 78.8°F26.0°C 71.9°F22.2°C 79% 1.4 mph W2.3 kmh W 6.0 mph9.7 kmh 30.02 in1016.6 mb 0.00 in0.0 mm 0.00 in0.0 mm 0.00 in0.0 mm
03:26 AM 78.7°F25.9°C 71.8°F22.1°C 79% 1.4 mph W2.3 kmh W 6.0 mph9.7 kmh 30.01 in1016.3 mb 0.00 in0.0 mm 0.00 in0.0 mm 0.00 in0.0 mm
03:31 AM 78.6°F25.9°C 71.7°F22.1°C 79% 1.9 mph W3.1 kmh W 3.0 mph4.8 kmh 30.01 in1016.3 mb 0.00 in0.0 mm 0.00 in0.0 mm 0.00 in0.0 mm
03:36 AM 78.5°F25.8°C 71.4°F21.9°C 79% 2.0 mph W3.2 kmh W 4.0 mph6.4 kmh 30.01 in1016.3 mb 0.00 in0.0 mm 0.00 in0.0 mm 0.00 in0.0 mm
03:41 AM 78.4°F25.8°C 71.7°F22.1°C 80% 1.4 mph WNW2.3 kmh WNW 4.0 mph6.4 kmh 30.01 in1016.3 mb 0.00 in0.0 mm 0.00 in0.0 mm 0.00 in0.0 mm
03:46 AM 78.5°F25.8°C 71.4°F21.9°C 79% 1.3 mph W2.1 kmh W 4.0 mph6.4 kmh 30.01 in1016.3 mb 0.00 in0.0 mm 0.00 in0.0 mm 0.00 in0.0 mm
03:51 AM 78.4°F25.8°C 71.8°F22.1°C 80% 1.1 mph WSW1.8 kmh WSW 4.0 mph6.4 kmh 30.01 in1016.3 mb 0.00 in0.0 mm 0.00 in0.0 mm 0.00 in0.0 mm
03:56 AM 78.3°F25.7°C 71.7°F22.1°C 80% 1.5 mph WSW2.4 kmh WSW 3.0 mph4.8 kmh 30.02 in1016.6 mb 0.00 in0.0 mm 0.00 in0.0 mm 0.00 in0.0 mm
04:01 AM 77.9°F25.5°C 71.7°F22.1°C 81% 1.0 mph WSW1.6 kmh WSW 3.0 mph4.8 kmh 30.02 in1016.6 mb 0.00 in0.0 mm 0.00 in0.0 mm 0.00 in0.0 mm
04:06 AM 77.4°F25.2°C 71.6°F22.0°C 82% 1.8 mph WSW2.9 kmh WSW 3.0 mph4.8 kmh 30.02 in1016.6 mb 0.00 in0.0 mm 0.00 in0.0 mm 0.00 in0.0 mm
04:11 AM 77.2°F25.1°C 71.4°F21.9°C 82% 1.0 mph SW1.6 kmh SW 4.0 mph6.4 kmh 30.02 in1016.6 mb 0.00 in0.0 mm 0.00 in0.0 mm 0.00 in0.0 mm
04:16 AM 76.8°F24.9°C 71.7°F22.1°C 84% 1.3 mph SW2.1 kmh SW 4.0 mph6.4 kmh 30.02 in1016.6 mb 0.00 in0.0 mm 0.00 in0.0 mm 0.00 in0.0 mm
04:21 AM 75.9°F24.4°C 71.4°F21.9°C 86% 1.3 mph SW2.1 kmh SW 4.0 mph6.4 kmh 30.02 in1016.6 mb 0.00 in0.0 mm 0.00 in0.0 mm 0.00 in0.0 mm
04:26 AM 75.2°F24.0°C 71.1°F21.7°C 87% 1.7 mph SW2.7 kmh SW 4.0 mph6.4 kmh 30.02 in1016.6 mb 0.00 in0.0 mm 0.00 in0.0 mm 0.00 in0.0 mm
04:31 AM 74.8°F23.8°C 71.0°F21.7°C 88% 1.6 mph SSW2.6 kmh SSW 4.0 mph6.4 kmh 30.02 in1016.6 mb 0.00 in0.0 mm 0.00 in0.0 mm 0.00 in0.0 mm
04:36 AM 74.6°F23.7°C 71.1°F21.7°C 89% 1.0 mph SW1.6 kmh SW 4.0 mph6.4 kmh 30.02 in1016.6 mb 0.00 in0.0 mm 0.00 in0.0 mm 0.00 in0.0 mm
04:41 AM 74.4°F23.6°C 70.9°F21.6°C 89% Calm Calm 4.0 mph6.4 kmh 30.01 in1016.3 mb 0.00 in0.0 mm 0.00 in0.0 mm 0.00 in0.0 mm
04:46 AM 74.3°F23.5°C 71.2°F21.8°C 90% 1.6 mph SW2.6 kmh SW 4.0 mph6.4 kmh 30.02 in1016.6 mb 0.00 in0.0 mm 0.00 in0.0 mm 0.00 in0.0 mm
04:51 AM 74.2°F23.4°C 71.1°F21.7°C 90% 1.3 mph SW2.1 kmh SW 2.0 mph3.2 kmh 30.02 in1016.6 mb 0.00 in0.0 mm 0.00 in0.0 mm 0.00 in0.0 mm
04:56 AM 74.1°F23.4°C 71.0°F21.7°C 90% Calm Calm 2.0 mph3.2 kmh 30.02 in1016.6 mb 0.00 in0.0 mm 0.00 in0.0 mm 0.00 in0.0 mm
05:01 AM 74.0°F23.3°C 70.9°F21.6°C 90% Calm Calm 2.0 mph3.2 kmh 30.02 in1016.6 mb 0.00 in0.0 mm 0.00 in0.0 mm 0.00 in0.0 mm
05:06 AM 73.9°F23.3°C 70.8°F21.6°C 90% 1.0 mph SW1.6 kmh SW 2.0 mph3.2 kmh 30.02 in1016.6 mb 0.00 in0.0 mm 0.00 in0.0 mm 0.00 in0.0 mm
05:11 AM 73.8°F23.2°C 71.0°F21.7°C 91% Calm Calm 1.0 mph1.6 kmh 30.02 in1016.6 mb 0.00 in0.0 mm 0.00 in0.0 mm 0.00 in0.0 mm
05:15 AM 73.6°F23.1°C 70.8°F21.6°C 91% Calm Calm 1.0 mph1.6 kmh 30.02 in1016.6 mb 0.00 in0.0 mm 0.00 in0.0 mm 0.00 in0.0 mm
05:20 AM 73.5°F23.1°C 70.7°F21.5°C 91% 1.0 mph WSW1.6 kmh WSW 2.0 mph3.2 kmh 30.03 in1016.9 mb 0.00 in0.0 mm 0.00 in0.0 mm 0.00 in0.0 mm
05:25 AM 73.4°F23.0°C 70.9°F21.6°C 92% 1.0 mph SW1.6 kmh SW 2.0 mph3.2 kmh 30.03 in1016.9 mb 0.00 in0.0 mm 0.00 in0.0 mm 0.00 in0.0 mm
05:30 AM 73.4°F23.0°C 70.9°F21.6°C 92% Calm Calm 2.0 mph3.2 kmh 30.03 in1016.9 mb 0.00 in0.0 mm 0.00 in0.0 mm 0.00 in0.0 mm
05:35 AM 73.3°F22.9°C 70.8°F21.6°C 92% Calm Calm 2.0 mph3.2 kmh 30.03 in1016.9 mb 0.00 in0.0 mm 0.00 in0.0 mm 0.00 in0.0 mm
05:40 AM 73.3°F22.9°C 70.8°F21.6°C 92% 1.2 mph WSW1.9 kmh WSW 2.0 mph3.2 kmh 30.03 in1016.9 mb 0.00 in0.0 mm 0.00 in0.0 mm 0.00 in0.0 mm
05:45 AM 73.4°F23.0°C 70.9°F21.6°C 92% 1.0 mph WSW1.6 kmh WSW 3.0 mph4.8 kmh 30.03 in1016.9 mb 0.00 in0.0 mm 0.00 in0.0 mm 0.00 in0.0 mm
05:50 AM 73.4°F23.0°C 70.9°F21.6°C 92% 1.0 mph SW1.6 kmh SW 3.0 mph4.8 kmh 30.03 in1016.9 mb 0.00 in0.0 mm 0.00 in0.0 mm 0.00 in0.0 mm
05:55 AM 73.3°F22.9°C 70.8°F21.6°C 92% Calm Calm 3.0 mph4.8 kmh 30.04 in1017.3 mb 0.00 in0.0 mm 0.00 in0.0 mm 0.00 in0.0 mm
06:00 AM 73.2°F22.9°C 70.7°F21.5°C 92% Calm Calm 1.0 mph1.6 kmh 30.04 in1017.3 mb 0.00 in0.0 mm 0.00 in0.0 mm 0.00 in0.0 mm
06:05 AM 73.1°F22.8°C 70.6°F21.4°C 92% Calm Calm 1.0 mph1.6 kmh 30.04 in1017.3 mb 0.00 in0.0 mm 0.00 in0.0 mm 0.00 in0.0 mm
06:10 AM 72.9°F22.7°C 70.8°F21.6°C 93% 1.0 mph SW1.6 kmh SW 1.0 mph1.6 kmh 30.04 in1017.3 mb 0.00 in0.0 mm 0.00 in0.0 mm 0.00 in0.0 mm
06:15 AM 72.7°F22.6°C 70.5°F21.4°C 93% 1.3 mph WSW2.1 kmh WSW 3.0 mph4.8 kmh 30.04 in1017.3 mb 0.00 in0.0 mm 0.00 in0.0 mm 0.00 in0.0 mm
06:20 AM 72.9°F22.7°C 70.7°F21.5°C 93% 1.5 mph SW2.4 kmh SW 4.0 mph6.4 kmh 30.04 in1017.3 mb 0.00 in0.0 mm 0.00 in0.0 mm 0.00 in0.0 mm
06:25 AM 73.0°F22.8°C 70.8°F21.6°C 93% 1.2 mph SW1.9 kmh SW 4.0 mph6.4 kmh 30.04 in1017.3 mb 0.00 in0.0 mm 0.00 in0.0 mm 0.00 in0.0 mm
06:30 AM 72.9°F22.7°C 70.7°F21.5°C 93% 1.0 mph SW1.6 kmh SW 4.0 mph6.4 kmh 30.04 in1017.3 mb 0.00 in0.0 mm 0.00 in0.0 mm 0.00 in0.0 mm
06:35 AM 72.9°F22.7°C 70.7°F21.5°C 93% 1.4 mph SW2.3 kmh SW 4.0 mph6.4 kmh 30.04 in1017.3 mb 0.00 in0.0 mm 0.00 in0.0 mm 0.00 in0.0 mm
06:40 AM 72.9°F22.7°C 70.7°F21.5°C 93% 1.5 mph SW2.4 kmh SW 5.0 mph8.0 kmh 30.04 in1017.3 mb 0.00 in0.0 mm 0.00 in0.0 mm 0.00 in0.0 mm
06:45 AM 72.8°F22.7°C 70.7°F21.5°C 93% 1.7 mph SW2.7 kmh SW 5.0 mph8.0 kmh 30.04 in1017.3 mb 0.00 in0.0 mm 0.00 in0.0 mm 0.00 in0.0 mm
06:50 AM 72.8°F22.7°C 70.7°F21.5°C 93% 1.4 mph SW2.3 kmh SW 5.0 mph8.0 kmh 30.04 in1017.3 mb 0.00 in0.0 mm 0.00 in0.0 mm 0.00 in0.0 mm
06:55 AM 72.7°F22.6°C 70.9°F21.6°C 94% 1.5 mph SW2.4 kmh SW 5.0 mph8.0 kmh 30.04 in1017.3 mb 0.00 in0.0 mm 0.00 in0.0 mm 0.00 in0.0 mm
07:00 AM 72.7°F22.6°C 70.8°F21.6°C 94% 1.8 mph SW2.9 kmh SW 3.0 mph4.8 kmh 30.04 in1017.3 mb 0.00 in0.0 mm 0.00 in0.0 mm 0.00 in0.0 mm
07:05 AM 72.7°F22.6°C 70.8°F21.6°C 94% 2.0 mph SW3.2 kmh SW 5.0 mph8.0 kmh 30.04 in1017.3 mb 0.00 in0.0 mm 0.00 in0.0 mm 0.00 in0.0 mm
07:10 AM 72.8°F22.7°C 70.9°F21.6°C 94% 2.0 mph SW3.2 kmh SW 5.0 mph8.0 kmh 30.04 in1017.3 mb 0.00 in0.0 mm 0.00 in0.0 mm 0.00 in0.0 mm
07:15 AM 73.0°F22.8°C 71.1°F21.7°C 94% 1.7 mph SW2.7 kmh SW 5.0 mph8.0 kmh 30.04 in1017.3 mb 0.00 in0.0 mm 0.00 in0.0 mm 0.00 in0.0 mm
07:20 AM 73.1°F22.8°C 71.2°F21.8°C 94% 1.5 mph SW2.4 kmh SW 5.0 mph8.0 kmh 30.04 in1017.3 mb 0.00 in0.0 mm 0.00 in0.0 mm 0.00 in0.0 mm
07:25 AM 73.1°F22.8°C 70.9°F21.6°C 93% 1.5 mph SW2.4 kmh SW 5.0 mph8.0 kmh 30.04 in1017.3 mb 0.00 in0.0 mm 0.00 in0.0 mm 0.00 in0.0 mm
07:30 AM 73.3°F22.9°C 71.1°F21.7°C 93% 1.0 mph SW1.6 kmh SW 4.0 mph6.4 kmh 30.05 in1017.6 mb 0.00 in0.0 mm 0.00 in0.0 mm 0.00 in0.0 mm
07:35 AM 73.5°F23.1°C 71.3°F21.8°C 93% 1.3 mph SW2.1 kmh SW 4.0 mph6.4 kmh 30.05 in1017.6 mb 0.00 in0.0 mm 0.00 in0.0 mm 0.00 in0.0 mm
07:40 AM 73.9°F23.3°C 71.7°F22.1°C 93% 1.6 mph SW2.6 kmh SW 4.0 mph6.4 kmh 30.05 in1017.6 mb 0.00 in0.0 mm 0.00 in0.0 mm 0.00 in0.0 mm
07:45 AM 74.4°F23.6°C 71.9°F22.2°C 92% 1.8 mph SW2.9 kmh SW 4.0 mph6.4 kmh 30.05 in1017.6 mb 0.00 in0.0 mm 0.00 in0.0 mm 0.00 in0.0 mm
07:50 AM 74.7°F23.7°C 71.9°F22.2°C 91% 2.5 mph SW4.0 kmh SW 4.0 mph6.4 kmh 30.05 in1017.6 mb 0.00 in0.0 mm 0.00 in0.0 mm 0.00 in0.0 mm
07:55 AM 75.0°F23.9°C 72.2°F22.3°C 91% 2.3 mph SW3.7 kmh SW 5.0 mph8.0 kmh 30.05 in1017.6 mb 0.00 in0.0 mm 0.00 in0.0 mm 0.00 in0.0 mm
08:00 AM 75.3°F24.1°C 72.2°F22.3°C 90% 2.9 mph SW4.7 kmh SW 7.0 mph11.3 kmh 30.05 in1017.6 mb 0.00 in0.0 mm 0.00 in0.0 mm 0.00 in0.0 mm
08:05 AM 75.7°F24.3°C 72.2°F22.3°C 89% 2.4 mph SW3.9 kmh SW 7.0 mph11.3 kmh 30.05 in1017.6 mb 0.00 in0.0 mm 0.00 in0.0 mm 0.00 in0.0 mm
08:10 AM 76.1°F24.5°C 72.6°F22.6°C 89% 1.0 mph SW1.6 kmh SW 7.0 mph11.3 kmh 30.06 in1017.9 mb 0.00 in0.0 mm 0.00 in0.0 mm 0.00 in0.0 mm
08:15 AM 76.3°F24.6°C 72.5°F22.5°C 88% 1.9 mph SW3.1 kmh SW 7.0 mph11.3 kmh 30.06 in1017.9 mb 0.00 in0.0 mm 0.00 in0.0 mm 0.00 in0.0 mm
08:20 AM 76.5°F24.7°C 72.7°F22.6°C 88% 1.7 mph SW2.7 kmh SW 4.0 mph6.4 kmh 30.06 in1017.9 mb 0.00 in0.0 mm 0.00 in0.0 mm 0.00 in0.0 mm
08:25 AM 76.6°F24.8°C 72.8°F22.7°C 88% 2.3 mph SW3.7 kmh SW 9.0 mph14.5 kmh 30.05 in1017.6 mb 0.00 in0.0 mm 0.00 in0.0 mm 0.00 in0.0 mm
08:30 AM 76.8°F24.9°C 72.7°F22.6°C 87% 2.6 mph SW4.2 kmh SW 9.0 mph14.5 kmh 30.06 in1017.9 mb 0.00 in0.0 mm 0.00 in0.0 mm 0.00 in0.0 mm
08:35 AM 77.0°F25.0°C 72.9°F22.7°C 87% 1.8 mph SW2.9 kmh SW 9.0 mph14.5 kmh 30.06 in1017.9 mb 0.00 in0.0 mm 0.00 in0.0 mm 0.00 in0.0 mm
08:40 AM 77.3°F25.2°C 73.1°F22.8°C 87% 1.0 mph SW1.6 kmh SW 6.0 mph9.7 kmh 30.06 in1017.9 mb 0.00 in0.0 mm 0.00 in0.0 mm 0.00 in0.0 mm
08:45 AM 77.5°F25.3°C 73.0°F22.8°C 86% 1.7 mph SW2.7 kmh SW 6.0 mph9.7 kmh 30.06 in1017.9 mb 0.00 in0.0 mm 0.00 in0.0 mm 0.00 in0.0 mm
08:50 AM 77.7°F25.4°C 73.2°F22.9°C 86% 1.8 mph SW2.9 kmh SW 4.0 mph6.4 kmh 30.06 in1017.9 mb 0.00 in0.0 mm 0.00 in0.0 mm 0.00 in0.0 mm
08:55 AM 78.0°F25.6°C 73.5°F23.1°C 86% 2.3 mph SW3.7 kmh SW 4.0 mph6.4 kmh 30.06 in1017.9 mb 0.00 in0.0 mm 0.00 in0.0 mm 0.00 in0.0 mm
09:00 AM 78.4°F25.8°C 73.5°F23.1°C 85% 1.9 mph SW3.1 kmh SW 4.0 mph6.4 kmh 30.06 in1017.9 mb 0.00 in0.0 mm 0.00 in0.0 mm 0.00 in0.0 mm
09:05 AM 78.7°F25.9°C 73.9°F23.3°C 85% 1.9 mph SW3.1 kmh SW 4.0 mph6.4 kmh 30.06 in1017.9 mb 0.00 in0.0 mm 0.00 in0.0 mm 0.00 in0.0 mm
09:10 AM 79.2°F26.2°C 73.9°F23.3°C 84% 2.3 mph SW3.7 kmh SW 4.0 mph6.4 kmh 30.06 in1017.9 mb 0.00 in0.0 mm 0.00 in0.0 mm 0.00 in0.0 mm
09:15 AM 79.6°F26.4°C 74.4°F23.6°C 84% 1.6 mph SW2.6 kmh SW 5.0 mph8.0 kmh 30.06 in1017.9 mb 0.00 in0.0 mm 0.00 in0.0 mm 0.00 in0.0 mm
09:20 AM 80.1°F26.7°C 74.5°F23.6°C 83% 2.1 mph SW3.4 kmh SW 5.0 mph8.0 kmh 30.06 in1017.9 mb 0.00 in0.0 mm 0.00 in0.0 mm 0.00 in0.0 mm
09:25 AM 80.7°F27.1°C 75.1°F23.9°C 83% 1.3 mph SSW2.1 kmh SSW 5.0 mph8.0 kmh 30.06 in1017.9 mb 0.00 in0.0 mm 0.00 in0.0 mm 0.00 in0.0 mm
09:30 AM 81.3°F27.4°C 75.4°F24.1°C 82% 1.3 mph SW2.1 kmh SW 5.0 mph8.0 kmh 30.06 in1017.9 mb 0.00 in0.0 mm 0.00 in0.0 mm 0.00 in0.0 mm
09:35 AM 81.6°F27.6°C 75.3°F24.1°C 81% 1.1 mph SW1.8 kmh SW 5.0 mph8.0 kmh 30.06 in1017.9 mb 0.00 in0.0 mm 0.00 in0.0 mm 0.00 in0.0 mm
09:40 AM 82.2°F27.9°C 75.8°F24.3°C 81% Calm Calm 5.0 mph8.0 kmh 30.06 in1017.9 mb 0.00 in0.0 mm 0.00 in0.0 mm 0.00 in0.0 mm
09:45 AM 82.7°F28.2°C 75.7°F24.3°C 79% 1.7 mph SW2.7 kmh SW 4.0 mph6.4 kmh 30.06 in1017.9 mb 0.00 in0.0 mm 0.00 in0.0 mm 0.00 in0.0 mm
09:50 AM 83.0°F28.3°C 76.0°F24.4°C 79% Calm Calm 4.0 mph6.4 kmh 30.06 in1017.9 mb 0.00 in0.0 mm 0.00 in0.0 mm 0.00 in0.0 mm
09:55 AM 83.6°F28.7°C 76.2°F24.6°C 78% 1.8 mph SW2.9 kmh SW 4.0 mph6.4 kmh 30.06 in1017.9 mb 0.00 in0.0 mm 0.00 in0.0 mm 0.00 in0.0 mm
10:00 AM 83.5°F28.6°C 75.5°F24.2°C 77% 2.2 mph SW3.5 kmh SW 5.0 mph8.0 kmh 30.06 in1017.9 mb 0.00 in0.0 mm 0.00 in0.0 mm 0.00 in0.0 mm
10:05 AM 83.5°F28.6°C 76.1°F24.5°C 78% 1.6 mph WSW2.6 kmh WSW 5.0 mph8.0 kmh 30.06 in1017.9 mb 0.00 in0.0 mm 0.00 in0.0 mm 0.00 in0.0 mm
10:10 AM 84.0°F28.9°C 76.9°F24.9°C 79% 1.0 mph SW1.6 kmh SW 5.0 mph8.0 kmh 30.06 in1017.9 mb 0.00 in0.0 mm 0.00 in0.0 mm 0.00 in0.0 mm
10:15 AM 84.6°F29.2°C 76.8°F24.9°C 77% Calm Calm 5.0 mph8.0 kmh 30.06 in1017.9 mb 0.00 in0.0 mm 0.00 in0.0 mm 0.00 in0.0 mm
10:20 AM 84.9°F29.4°C 75.9°F24.4°C 74% 1.0 mph WSW1.6 kmh WSW 4.0 mph6.4 kmh 30.05 in1017.6 mb 0.00 in0.0 mm 0.00 in0.0 mm 0.00 in0.0 mm
10:25 AM 85.0°F29.4°C 76.4°F24.7°C 75% Calm Calm 4.0 mph6.4 kmh 30.06 in1017.9 mb 0.00 in0.0 mm 0.00 in0.0 mm 0.00 in0.0 mm
10:30 AM 85.0°F29.4°C 76.4°F24.7°C 75% 2.5 mph WSW4.0 kmh WSW 5.0 mph8.0 kmh 30.06 in1017.9 mb 0.00 in0.0 mm 0.00 in0.0 mm 0.00 in0.0 mm
10:35 AM 85.5°F29.7°C 76.5°F24.7°C 74% 2.1 mph SW3.4 kmh SW 5.0 mph8.0 kmh 30.06 in1017.9 mb 0.00 in0.0 mm 0.00 in0.0 mm 0.00 in0.0 mm
10:40 AM 85.7°F29.8°C 76.3°F24.6°C 73% 1.7 mph WSW2.7 kmh WSW 5.0 mph8.0 kmh 30.05 in1017.6 mb 0.00 in0.0 mm 0.00 in0.0 mm 0.00 in0.0 mm
10:45 AM 85.9°F29.9°C 76.5°F24.7°C 73% 3.3 mph SW5.3 kmh SW 7.0 mph11.3 kmh 30.06 in1017.9 mb 0.00 in0.0 mm 0.00 in0.0 mm 0.00 in0.0 mm
10:50 AM 86.3°F30.2°C 76.4°F24.7°C 72% 2.0 mph WSW3.2 kmh WSW 7.0 mph11.3 kmh 30.06 in1017.9 mb 0.00 in0.0 mm 0.00 in0.0 mm 0.00 in0.0 mm
10:55 AM 86.8°F30.4°C 76.9°F24.9°C 72% 2.4 mph SW3.9 kmh SW 7.0 mph11.3 kmh 30.06 in1017.9 mb 0.00 in0.0 mm 0.00 in0.0 mm 0.00 in0.0 mm
11:00 AM 86.9°F30.5°C 76.6°F24.8°C 71% 2.0 mph WSW3.2 kmh WSW 9.0 mph14.5 kmh 30.05 in1017.6 mb 0.00 in0.0 mm 0.00 in0.0 mm 0.00 in0.0 mm
11:05 AM 87.4°F30.8°C 76.7°F24.8°C 70% 2.8 mph WSW4.5 kmh WSW 9.0 mph14.5 kmh 30.05 in1017.6 mb 0.00 in0.0 mm 0.00 in0.0 mm 0.00 in0.0 mm
11:10 AM 87.9°F31.1°C 77.2°F25.1°C 70% Calm Calm 9.0 mph14.5 kmh 30.05 in1017.6 mb 0.00 in0.0 mm 0.00 in0.0 mm 0.00 in0.0 mm
11:14 AM 88.1°F31.2°C 76.5°F24.7°C 68% 2.2 mph NW3.5 kmh NW 9.0 mph14.5 kmh 30.05 in1017.6 mb 0.00 in0.0 mm 0.00 in0.0 mm 0.00 in0.0 mm
11:19 AM 88.1°F31.2°C 75.6°F24.2°C 66% 5.4 mph W8.7 kmh W 9.0 mph14.5 kmh 30.05 in1017.6 mb 0.00 in0.0 mm 0.00 in0.0 mm 0.00 in0.0 mm
11:24 AM 88.0°F31.1°C 76.1°F24.5°C 68% 2.7 mph WSW4.3 kmh WSW 9.0 mph14.5 kmh 30.05 in1017.6 mb 0.00 in0.0 mm 0.00 in0.0 mm 0.00 in0.0 mm
11:29 AM 88.2°F31.2°C 76.1°F24.5°C 67% 3.7 mph W6.0 kmh W 9.0 mph14.5 kmh 30.05 in1017.6 mb 0.00 in0.0 mm 0.00 in0.0 mm 0.00 in0.0 mm
11:34 AM 88.1°F31.2°C 76.0°F24.4°C 67% 3.6 mph WNW5.8 kmh WNW 9.0 mph14.5 kmh 30.05 in1017.6 mb 0.00 in0.0 mm 0.00 in0.0 mm 0.00 in0.0 mm
11:39 AM 87.8°F31.0°C 75.8°F24.3°C 67% 2.9 mph WSW4.7 kmh WSW 9.0 mph14.5 kmh 30.05 in1017.6 mb 0.00 in0.0 mm 0.00 in0.0 mm 0.00 in0.0 mm
11:44 AM 87.9°F31.1°C 75.4°F24.1°C 66% 3.2 mph NW5.1 kmh NW 9.0 mph14.5 kmh 30.05 in1017.6 mb 0.00 in0.0 mm 0.00 in0.0 mm 0.00 in0.0 mm
11:49 AM 88.1°F31.2°C 75.1°F23.9°C 65% 3.1 mph W5.0 kmh W 9.0 mph14.5 kmh 30.05 in1017.6 mb 0.00 in0.0 mm 0.00 in0.0 mm 0.00 in0.0 mm
11:54 AM 88.3°F31.3°C 74.1°F23.4°C 63% 3.5 mph W5.6 kmh W 9.0 mph14.5 kmh 30.05 in1017.6 mb 0.00 in0.0 mm 0.00 in0.0 mm 0.00 in0.0 mm
11:59 AM 88.6°F31.4°C 75.2°F24.0°C 64% 4.1 mph SW6.6 kmh SW 9.0 mph14.5 kmh 30.05 in1017.6 mb 0.00 in0.0 mm 0.00 in0.0 mm 0.00 in0.0 mm
12:04 PM 89.0°F31.7°C 76.0°F24.4°C 65% 2.3 mph W3.7 kmh W 8.0 mph12.9 kmh 30.05 in1017.6 mb 0.00 in0.0 mm 0.00 in0.0 mm 0.00 in0.0 mm
12:09 PM 89.0°F31.7°C 75.1°F23.9°C 63% 3.7 mph WSW6.0 kmh WSW 8.0 mph12.9 kmh 30.05 in1017.6 mb 0.00 in0.0 mm 0.00 in0.0 mm 0.00 in0.0 mm
12:14 PM 89.3°F31.8°C 76.7°F24.8°C 66% 2.2 mph SW3.5 kmh SW 8.0 mph12.9 kmh 30.05 in1017.6 mb 0.00 in0.0 mm 0.00 in0.0 mm 0.00 in0.0 mm
12:19 PM 89.8°F32.1°C 76.3°F24.6°C 64% 1.1 mph NW1.8 kmh NW 8.0 mph12.9 kmh 30.05 in1017.6 mb 0.00 in0.0 mm 0.00 in0.0 mm 0.00 in0.0 mm
12:24 PM 89.1°F31.7°C 75.6°F24.2°C 64% 3.5 mph WSW5.6 kmh WSW 11.0 mph17.7 kmh 30.05 in1017.6 mb 0.00 in0.0 mm 0.00 in0.0 mm 0.00 in0.0 mm
12:29 PM 88.6°F31.4°C 75.3°F24.1°C 65% 2.3 mph WSW3.7 kmh WSW 11.0 mph17.7 kmh 30.05 in1017.6 mb 0.00 in0.0 mm 0.00 in0.0 mm 0.00 in0.0 mm
12:34 PM 89.3°F31.8°C 76.3°F24.6°C 65% 2.1 mph WNW3.4 kmh WNW 11.0 mph17.7 kmh 30.05 in1017.6 mb 0.00 in0.0 mm 0.00 in0.0 mm 0.00 in0.0 mm
12:39 PM 89.4°F31.9°C 74.5°F23.6°C 61% 4.4 mph WSW7.1 kmh WSW 11.0 mph17.7 kmh 30.05 in1017.6 mb 0.00 in0.0 mm 0.00 in0.0 mm 0.00 in0.0 mm
12:44 PM 89.5°F31.9°C 75.5°F24.2°C 63% 2.5 mph WSW4.0 kmh WSW 9.0 mph14.5 kmh 30.04 in1017.3 mb 0.00 in0.0 mm 0.00 in0.0 mm 0.00 in0.0 mm
12:49 PM 90.1°F32.3°C 75.1°F23.9°C 61% 4.1 mph WSW6.6 kmh WSW 10.0 mph16.1 kmh 30.04 in1017.3 mb 0.00 in0.0 mm 0.00 in0.0 mm 0.00 in0.0 mm
12:54 PM 90.5°F32.5°C 75.0°F23.9°C 60% 2.6 mph WSW4.2 kmh WSW 10.0 mph16.1 kmh 30.04 in1017.3 mb 0.00 in0.0 mm 0.00 in0.0 mm 0.00 in0.0 mm
12:59 PM 90.5°F32.5°C 75.5°F24.2°C 61% 3.1 mph WSW5.0 kmh WSW 10.0 mph16.1 kmh 30.04 in1017.3 mb 0.00 in0.0 mm 0.00 in0.0 mm 0.00 in0.0 mm
01:04 PM 90.1°F32.3°C 75.3°F24.1°C 62% Calm Calm 10.0 mph16.1 kmh 30.04 in1017.3 mb 0.00 in0.0 mm 0.00 in0.0 mm 0.00 in0.0 mm
01:09 PM 89.9°F32.2°C 75.4°F24.1°C 62% 2.3 mph WNW3.7 kmh WNW 9.0 mph14.5 kmh 30.04 in1017.3 mb 0.00 in0.0 mm 0.00 in0.0 mm 0.00 in0.0 mm
01:14 PM 89.3°F31.8°C 74.4°F23.6°C 61% 2.7 mph WNW4.3 kmh WNW 9.0 mph14.5 kmh 30.04 in1017.3 mb 0.00 in0.0 mm 0.00 in0.0 mm 0.00 in0.0 mm
01:19 PM 89.6°F32.0°C 75.2°F24.0°C 62% 3.7 mph WNW6.0 kmh WNW 10.0 mph16.1 kmh 30.04 in1017.3 mb 0.00 in0.0 mm 0.00 in0.0 mm 0.00 in0.0 mm
01:24 PM 89.9°F32.2°C 75.1°F23.9°C 62% 4.2 mph W6.8 kmh W 12.0 mph19.3 kmh 30.03 in1016.9 mb 0.00 in0.0 mm 0.00 in0.0 mm 0.00 in0.0 mm
01:29 PM 89.5°F31.9°C 74.6°F23.7°C 61% 3.2 mph WNW5.1 kmh WNW 12.0 mph19.3 kmh 30.03 in1016.9 mb 0.00 in0.0 mm 0.00 in0.0 mm 0.00 in0.0 mm
01:34 PM 89.8°F32.1°C 74.9°F23.8°C 61% 3.0 mph W4.8 kmh W 12.0 mph19.3 kmh 30.03 in1016.9 mb 0.00 in0.0 mm 0.00 in0.0 mm 0.00 in0.0 mm
01:39 PM 90.7°F32.6°C 75.2°F24.0°C 60% 2.5 mph SSW4.0 kmh SSW 12.0 mph19.3 kmh 30.02 in1016.6 mb 0.00 in0.0 mm 0.00 in0.0 mm 0.00 in0.0 mm
01:44 PM 90.9°F32.7°C 74.4°F23.6°C 58% 3.7 mph SW6.0 kmh SW 11.0 mph17.7 kmh 30.03 in1016.9 mb 0.00 in0.0 mm 0.00 in0.0 mm 0.00 in0.0 mm
01:49 PM 91.4°F33.0°C 75.4°F24.1°C 59% 3.1 mph SW5.0 kmh SW 11.0 mph17.7 kmh 30.02 in1016.6 mb 0.00 in0.0 mm 0.00 in0.0 mm 0.00 in0.0 mm
01:54 PM 92.2°F33.4°C 76.1°F24.5°C 59% 1.4 mph W2.3 kmh W 11.0 mph17.7 kmh 30.02 in1016.6 mb 0.00 in0.0 mm 0.00 in0.0 mm 0.00 in0.0 mm
01:59 PM 91.5°F33.1°C 74.6°F23.7°C 58% 2.9 mph WSW4.7 kmh WSW 11.0 mph17.7 kmh 30.02 in1016.6 mb 0.00 in0.0 mm 0.00 in0.0 mm 0.00 in0.0 mm
02:04 PM 91.1°F32.8°C 73.7°F23.2°C 57% 2.6 mph SW4.2 kmh SW 11.0 mph17.7 kmh 30.02 in1016.6 mb 0.00 in0.0 mm 0.00 in0.0 mm 0.00 in0.0 mm
02:09 PM 90.8°F32.7°C 74.3°F23.5°C 58% 1.7 mph W2.7 kmh W 11.0 mph17.7 kmh 30.02 in1016.6 mb 0.00 in0.0 mm 0.00 in0.0 mm 0.00 in0.0 mm
02:14 PM 90.4°F32.4°C 73.6°F23.1°C 58% 2.4 mph WSW3.9 kmh WSW 11.0 mph17.7 kmh 30.02 in1016.6 mb 0.00 in0.0 mm 0.00 in0.0 mm 0.00 in0.0 mm
02:19 PM 90.2°F32.3°C 73.2°F22.9°C 57% 3.5 mph W5.6 kmh W 9.0 mph14.5 kmh 30.02 in1016.6 mb 0.00 in0.0 mm 0.00 in0.0 mm 0.00 in0.0 mm
02:24 PM 90.4°F32.4°C 72.8°F22.7°C 56% 4.0 mph WNW6.4 kmh WNW 9.0 mph14.5 kmh 30.02 in1016.6 mb 0.00 in0.0 mm 0.00 in0.0 mm 0.00 in0.0 mm
02:29 PM 91.2°F32.9°C 74.1°F23.4°C 57% 3.0 mph W4.8 kmh W 9.0 mph14.5 kmh 30.02 in1016.6 mb 0.00 in0.0 mm 0.00 in0.0 mm 0.00 in0.0 mm
02:34 PM 91.7°F33.2°C 73.5°F23.1°C 55% 5.7 mph W9.2 kmh W 10.0 mph16.1 kmh 30.02 in1016.6 mb 0.00 in0.0 mm 0.00 in0.0 mm 0.00 in0.0 mm
02:39 PM 92.2°F33.4°C 73.7°F23.2°C 55% 2.8 mph WSW4.5 kmh WSW 10.0 mph16.1 kmh 30.01 in1016.3 mb 0.00 in0.0 mm 0.00 in0.0 mm 0.00 in0.0 mm
02:44 PM 92.0°F33.3°C 75.9°F24.4°C 59% 3.3 mph SW5.3 kmh SW 10.0 mph16.1 kmh 30.01 in1016.3 mb 0.00 in0.0 mm 0.00 in0.0 mm 0.00 in0.0 mm
02:49 PM 90.6°F32.6°C 75.6°F24.2°C 61% 3.0 mph SSE4.8 kmh SSE 10.0 mph16.1 kmh 30.01 in1016.3 mb 0.00 in0.0 mm 0.00 in0.0 mm 0.00 in0.0 mm
02:54 PM 89.8°F32.1°C 75.8°F24.3°C 63% 2.4 mph SW3.9 kmh SW 7.0 mph11.3 kmh 30.01 in1016.3 mb 0.00 in0.0 mm 0.00 in0.0 mm 0.00 in0.0 mm
02:59 PM 89.5°F31.9°C 75.7°F24.3°C 64% 1.0 mph SE1.6 kmh SE 7.0 mph11.3 kmh 30.01 in1016.3 mb 0.00 in0.0 mm 0.00 in0.0 mm 0.00 in0.0 mm
03:04 PM 88.9°F31.6°C 74.7°F23.7°C 63% 1.7 mph WNW2.7 kmh WNW 9.0 mph14.5 kmh 30.01 in1016.3 mb 0.00 in0.0 mm 0.00 in0.0 mm 0.00 in0.0 mm
03:09 PM 88.3°F31.3°C 74.9°F23.8°C 64% 2.7 mph SW4.3 kmh SW 9.0 mph14.5 kmh 30.01 in1016.3 mb 0.00 in0.0 mm 0.00 in0.0 mm 0.00 in0.0 mm
03:14 PM 88.2°F31.2°C 75.2°F24.0°C 65% 1.4 mph SW2.3 kmh SW 9.0 mph14.5 kmh 30.00 in1015.9 mb 0.00 in0.0 mm 0.00 in0.0 mm 0.00 in0.0 mm
03:19 PM 88.3°F31.3°C 75.8°F24.3°C 66% 1.0 mph SSW1.6 kmh SSW 9.0 mph14.5 kmh 30.00 in1015.9 mb 0.00 in0.0 mm 0.00 in0.0 mm 0.00 in0.0 mm
03:24 PM 88.6°F31.4°C 75.8°F24.3°C 66% Calm Calm 6.0 mph9.7 kmh 30.00 in1015.9 mb 0.00 in0.0 mm 0.00 in0.0 mm 0.00 in0.0 mm
03:29 PM 88.6°F31.4°C 76.7°F24.8°C 68% 1.0 mph SSW1.6 kmh SSW 3.0 mph4.8 kmh 29.99 in1015.6 mb 0.00 in0.0 mm 0.00 in0.0 mm 0.00 in0.0 mm
03:34 PM 87.0°F30.6°C 76.3°F24.6°C 70% 3.4 mph SE5.5 kmh SE 7.0 mph11.3 kmh 30.00 in1015.9 mb 0.00 in0.0 mm 0.00 in0.0 mm 0.00 in0.0 mm
03:39 PM 85.9°F29.9°C 76.1°F24.5°C 72% Calm Calm 7.0 mph11.3 kmh 30.01 in1016.3 mb 0.00 in0.0 mm 0.00 in0.0 mm 0.00 in0.0 mm
03:44 PM 85.4°F29.7°C 74.8°F23.8°C 70% 2.3 mph SE3.7 kmh SE 7.0 mph11.3 kmh 30.01 in1016.3 mb 0.00 in0.0 mm 0.00 in0.0 mm 0.00 in0.0 mm
03:49 PM 85.9°F29.9°C 74.8°F23.8°C 69% 1.0 mph SW1.6 kmh SW 7.0 mph11.3 kmh 30.01 in1016.3 mb 0.00 in0.0 mm 0.00 in0.0 mm 0.00 in0.0 mm
03:54 PM 85.8°F29.9°C 75.6°F24.2°C 71% 2.5 mph E4.0 kmh E 5.0 mph8.0 kmh 30.01 in1016.3 mb 0.00 in0.0 mm 0.00 in0.0 mm 0.00 in0.0 mm
03:59 PM 85.4°F29.7°C 75.8°F24.3°C 73% 1.0 mph E1.6 kmh E 5.0 mph8.0 kmh 30.02 in1016.6 mb 0.00 in0.0 mm 0.00 in0.0 mm 0.00 in0.0 mm
04:04 PM 85.6°F29.8°C 74.5°F23.6°C 69% 3.1 mph N5.0 kmh N 7.0 mph11.3 kmh 30.03 in1016.9 mb 0.00 in0.0 mm 0.00 in0.0 mm 0.00 in0.0 mm
04:09 PM 85.9°F29.9°C 73.9°F23.3°C 67% 4.3 mph WNW6.9 kmh WNW 8.0 mph12.9 kmh 30.04 in1017.3 mb 0.01 in0.3 mm 0.12 in3.0 mm 0.01 in0.3 mm
04:14 PM 84.1°F28.9°C 75.1°F23.9°C 74% 2.1 mph S3.4 kmh S 8.0 mph12.9 kmh 30.05 in1017.6 mb 0.20 in5.1 mm 2.28 in57.9 mm 0.20 in5.1 mm
04:19 PM 80.4°F26.9°C 75.5°F24.2°C 85% 2.4 mph SSE3.9 kmh SSE 9.0 mph14.5 kmh 30.05 in1017.6 mb 0.37 in9.4 mm 2.04 in51.8 mm 0.37 in9.4 mm
04:24 PM 77.7°F25.4°C 74.5°F23.6°C 90% 2.6 mph SW4.2 kmh SW 9.0 mph14.5 kmh 30.05 in1017.6 mb 0.38 in9.7 mm 0.12 in3.0 mm 0.38 in9.7 mm
04:29 PM 76.4°F24.7°C 73.9°F23.3°C 92% 2.9 mph SSE4.7 kmh SSE 9.0 mph14.5 kmh 30.05 in1017.6 mb 0.38 in9.7 mm 0.00 in0.0 mm 0.39 in9.9 mm
04:34 PM 75.5°F24.2°C 73.3°F22.9°C 93% 1.8 mph SW2.9 kmh SW 9.0 mph14.5 kmh 30.05 in1017.6 mb 0.46 in11.7 mm 0.96 in24.4 mm 0.46 in11.7 mm
04:39 PM 73.9°F23.3°C 71.4°F21.9°C 92% 3.7 mph SSE6.0 kmh SSE 18.0 mph29.0 kmh 30.05 in1017.6 mb 0.68 in17.3 mm 2.64 in67.1 mm 0.68 in17.3 mm
04:44 PM 72.6°F22.6°C 70.4°F21.3°C 93% 3.6 mph SE5.8 kmh SE 18.0 mph29.0 kmh 30.05 in1017.6 mb 0.78 in19.8 mm 1.20 in30.5 mm 0.78 in19.8 mm
04:49 PM 72.2°F22.3°C 70.7°F21.5°C 95% 1.1 mph W1.8 kmh W 18.0 mph29.0 kmh 30.06 in1017.9 mb 0.79 in20.1 mm 0.12 in3.0 mm 0.79 in20.1 mm
04:54 PM 71.9°F22.2°C 70.4°F21.3°C 95% Calm Calm 12.0 mph19.3 kmh 30.07 in1018.3 mb 0.80 in20.3 mm 0.12 in3.0 mm 0.80 in20.3 mm
04:59 PM 71.9°F22.2°C 70.7°F21.5°C 96% 3.0 mph NE4.8 kmh NE 10.0 mph16.1 kmh 30.07 in1018.3 mb 0.84 in21.3 mm 0.48 in12.2 mm 0.84 in21.3 mm
05:04 PM 72.0°F22.2°C 70.8°F21.6°C 96% 1.6 mph E2.6 kmh E 4.0 mph6.4 kmh 30.06 in1017.9 mb 0.85 in21.6 mm 0.01 in0.3 mm 0.85 in21.6 mm
05:09 PM 72.2°F22.3°C 71.0°F21.7°C 96% 1.0 mph SE1.6 kmh SE 4.0 mph6.4 kmh 30.05 in1017.6 mb 0.84 in21.3 mm 0.00 in0.0 mm 0.85 in21.6 mm
05:13 PM 72.4°F22.4°C 71.2°F21.8°C 96% 2.7 mph E4.3 kmh E 4.0 mph6.4 kmh 30.04 in1017.3 mb 0.70 in17.8 mm 0.00 in0.0 mm 0.85 in21.6 mm
05:18 PM 72.7°F22.6°C 71.8°F22.1°C 97% 2.2 mph SE3.5 kmh SE 5.0 mph8.0 kmh 30.04 in1017.3 mb 0.50 in12.7 mm 0.00 in0.0 mm 0.85 in21.6 mm
05:23 PM 72.9°F22.7°C 72.0°F22.2°C 97% 2.0 mph SE3.2 kmh SE 5.0 mph8.0 kmh 30.04 in1017.3 mb 0.47 in11.9 mm 0.00 in0.0 mm 0.85 in21.6 mm
05:28 PM 73.5°F23.1°C 72.6°F22.6°C 97% Calm Calm 5.0 mph8.0 kmh 30.04 in1017.3 mb 0.47 in11.9 mm 0.00 in0.0 mm 0.85 in21.6 mm
05:33 PM 73.7°F23.2°C 72.8°F22.7°C 97% Calm Calm 5.0 mph8.0 kmh 30.03 in1016.9 mb 0.44 in11.2 mm 0.00 in0.0 mm 0.85 in21.6 mm
05:38 PM 73.8°F23.2°C 72.9°F22.7°C 97% Calm Calm 4.0 mph6.4 kmh 30.02 in1016.6 mb 0.18 in4.6 mm 0.00 in0.0 mm 0.85 in21.6 mm
05:43 PM 74.0°F23.3°C 73.1°F22.8°C 97% Calm Calm 1.0 mph1.6 kmh 30.02 in1016.6 mb 0.09 in2.3 mm 0.00 in0.0 mm 0.85 in21.6 mm
05:48 PM 74.0°F23.3°C 73.1°F22.8°C 97% 1.0 mph SW1.6 kmh SW 1.0 mph1.6 kmh 30.01 in1016.3 mb 0.06 in1.5 mm 0.00 in0.0 mm 0.85 in21.6 mm
05:53 PM 74.2°F23.4°C 73.3°F22.9°C 97% 1.4 mph SW2.3 kmh SW 2.0 mph3.2 kmh 30.01 in1016.3 mb 0.05 in1.3 mm 0.00 in0.0 mm 0.85 in21.6 mm
05:58 PM 74.6°F23.7°C 73.7°F23.2°C 97% 1.0 mph WSW1.6 kmh WSW 3.0 mph4.8 kmh 30.00 in1015.9 mb 0.01 in0.3 mm 0.00 in0.0 mm 0.85 in21.6 mm
06:03 PM 74.8°F23.8°C 73.9°F23.3°C 97% 1.3 mph SW2.1 kmh SW 3.0 mph4.8 kmh 30.00 in1015.9 mb 0.00 in0.0 mm 0.00 in0.0 mm 0.85 in21.6 mm
06:08 PM 74.7°F23.7°C 73.5°F23.1°C 96% 1.9 mph SW3.1 kmh SW 5.0 mph8.0 kmh 30.00 in1015.9 mb 0.00 in0.0 mm 0.00 in0.0 mm 0.85 in21.6 mm
06:13 PM 74.9°F23.8°C 73.7°F23.2°C 96% 1.5 mph SW2.4 kmh SW 5.0 mph8.0 kmh 29.99 in1015.6 mb 0.00 in0.0 mm 0.00 in0.0 mm 0.85 in21.6 mm
06:18 PM 75.0°F23.9°C 73.8°F23.2°C 96% 1.3 mph SW2.1 kmh SW 5.0 mph8.0 kmh 29.99 in1015.6 mb 0.00 in0.0 mm 0.00 in0.0 mm 0.85 in21.6 mm
06:23 PM 75.4°F24.1°C 74.5°F23.6°C 97% 1.2 mph SW1.9 kmh SW 5.0 mph8.0 kmh 29.98 in1015.2 mb 0.00 in0.0 mm 0.00 in0.0 mm 0.85 in21.6 mm
06:28 PM 75.9°F24.4°C 75.0°F23.9°C 97% 1.3 mph SW2.1 kmh SW 3.0 mph4.8 kmh 29.98 in1015.2 mb 0.00 in0.0 mm 0.00 in0.0 mm 0.85 in21.6 mm
06:33 PM 76.4°F24.7°C 75.5°F24.2°C 97% Calm Calm 3.0 mph4.8 kmh 29.98 in1015.2 mb 0.00 in0.0 mm 0.00 in0.0 mm 0.85 in21.6 mm
06:38 PM 76.9°F24.9°C 76.0°F24.4°C 97% Calm Calm 3.0 mph4.8 kmh 29.98 in1015.2 mb 0.00 in0.0 mm 0.00 in0.0 mm 0.85 in21.6 mm
06:43 PM 77.3°F25.2°C 76.0°F24.4°C 96% Calm Calm 2.0 mph3.2 kmh 29.98 in1015.2 mb 0.00 in0.0 mm 0.00 in0.0 mm 0.85 in21.6 mm
06:48 PM 77.8°F25.4°C 76.5°F24.7°C 96% Calm Calm 2.0 mph3.2 kmh 29.98 in1015.2 mb 0.00 in0.0 mm 0.00 in0.0 mm 0.85 in21.6 mm
06:53 PM 78.7°F25.9°C 77.4°F25.2°C 96% Calm Calm 2.0 mph3.2 kmh 29.98 in1015.2 mb 0.00 in0.0 mm 0.00 in0.0 mm 0.85 in21.6 mm
06:58 PM 79.2°F26.2°C 77.3°F25.2°C 94% Calm Calm 2.0 mph3.2 kmh 29.98 in1015.2 mb 0.00 in0.0 mm 0.00 in0.0 mm 0.85 in21.6 mm
07:03 PM 79.5°F26.4°C 77.0°F25.0°C 92% 1.0 mph SW1.6 kmh SW 1.0 mph1.6 kmh 29.99 in1015.6 mb 0.00 in0.0 mm 0.00 in0.0 mm 0.85 in21.6 mm
07:08 PM 79.8°F26.6°C 76.9°F24.9°C 91% Calm Calm 1.0 mph1.6 kmh 29.99 in1015.6 mb 0.00 in0.0 mm 0.00 in0.0 mm 0.85 in21.6 mm
07:13 PM 79.9°F26.6°C 76.4°F24.7°C 89% 1.0 mph WSW1.6 kmh WSW 1.0 mph1.6 kmh 30.00 in1015.9 mb 0.00 in0.0 mm 0.00 in0.0 mm 0.85 in21.6 mm
07:18 PM 79.9°F26.6°C 75.7°F24.3°C 87% 1.0 mph W1.6 kmh W 3.0 mph4.8 kmh 30.00 in1015.9 mb 0.00 in0.0 mm 0.00 in0.0 mm 0.85 in21.6 mm
07:23 PM 80.0°F26.7°C 75.8°F24.3°C 87% 1.0 mph W1.6 kmh W 3.0 mph4.8 kmh 30.00 in1015.9 mb 0.00 in0.0 mm 0.00 in0.0 mm 0.85 in21.6 mm
07:28 PM 80.0°F26.7°C 76.5°F24.7°C 89% 1.0 mph WSW1.6 kmh WSW 3.0 mph4.8 kmh 30.01 in1016.3 mb 0.00 in0.0 mm 0.00 in0.0 mm 0.85 in21.6 mm
07:33 PM 79.7°F26.5°C 76.5°F24.7°C 90% Calm Calm 3.0 mph4.8 kmh 30.01 in1016.3 mb 0.00 in0.0 mm 0.00 in0.0 mm 0.85 in21.6 mm
07:38 PM 79.3°F26.3°C 76.4°F24.7°C 91% 1.0 mph SW1.6 kmh SW 1.0 mph1.6 kmh 30.01 in1016.3 mb 0.00 in0.0 mm 0.00 in0.0 mm 0.85 in21.6 mm
07:43 PM 78.9°F26.1°C 76.4°F24.7°C 92% Calm Calm 1.0 mph1.6 kmh 30.01 in1016.3 mb 0.00 in0.0 mm 0.00 in0.0 mm 0.85 in21.6 mm
07:48 PM 78.8°F26.0°C 76.3°F24.6°C 92% Calm Calm 1.0 mph1.6 kmh 30.02 in1016.6 mb 0.00 in0.0 mm 0.00 in0.0 mm 0.85 in21.6 mm
07:53 PM 78.8°F26.0°C 76.6°F24.8°C 93% Calm Calm 1.0 mph1.6 kmh 30.02 in1016.6 mb 0.00 in0.0 mm 0.00 in0.0 mm 0.85 in21.6 mm
07:58 PM 78.7°F25.9°C 76.5°F24.7°C 93% 1.2 mph SW1.9 kmh SW 2.0 mph3.2 kmh 30.02 in1016.6 mb 0.00 in0.0 mm 0.00 in0.0 mm 0.85 in21.6 mm
08:03 PM 78.6°F25.9°C 76.4°F24.7°C 93% 1.2 mph SW1.9 kmh SW 2.0 mph3.2 kmh 30.02 in1016.6 mb 0.00 in0.0 mm 0.00 in0.0 mm 0.85 in21.6 mm
08:08 PM 78.5°F25.8°C 76.6°F24.8°C 94% 1.0 mph SW1.6 kmh SW 3.0 mph4.8 kmh 30.02 in1016.6 mb 0.00 in0.0 mm 0.00 in0.0 mm 0.85 in21.6 mm
08:13 PM 78.3°F25.7°C 76.4°F24.7°C 94% 1.0 mph SW1.6 kmh SW 3.0 mph4.8 kmh 30.02 in1016.6 mb 0.00 in0.0 mm 0.00 in0.0 mm 0.85 in21.6 mm
08:18 PM 78.3°F25.7°C 76.7°F24.8°C 95% 1.0 mph SW1.6 kmh SW 3.0 mph4.8 kmh 30.02 in1016.6 mb 0.00 in0.0 mm 0.00 in0.0 mm 0.85 in21.6 mm
08:23 PM 78.2°F25.7°C 76.6°F24.8°C 95% Calm Calm 3.0 mph4.8 kmh 30.02 in1016.6 mb 0.00 in0.0 mm 0.00 in0.0 mm 0.85 in21.6 mm
08:28 PM 78.1°F25.6°C 76.5°F24.7°C 95% 1.3 mph SW2.1 kmh SW 3.0 mph4.8 kmh 30.02 in1016.6 mb 0.00 in0.0 mm 0.00 in0.0 mm 0.85 in21.6 mm
08:33 PM 78.1°F25.6°C 76.5°F24.7°C 95% 1.0 mph SW1.6 kmh SW 3.0 mph4.8 kmh 30.03 in1016.9 mb 0.00 in0.0 mm 0.00 in0.0 mm 0.85 in21.6 mm
08:38 PM 78.2°F25.7°C 76.6°F24.8°C 95% 1.3 mph SW2.1 kmh SW 4.0 mph6.4 kmh 30.03 in1016.9 mb 0.00 in0.0 mm 0.00 in0.0 mm 0.85 in21.6 mm
08:43 PM 78.1°F25.6°C 76.5°F24.7°C 95% 1.0 mph SW1.6 kmh SW 4.0 mph6.4 kmh 30.03 in1016.9 mb 0.00 in0.0 mm 0.00 in0.0 mm 0.85 in21.6 mm
08:48 PM 78.0°F25.6°C 76.4°F24.7°C 95% 1.2 mph SW1.9 kmh SW 4.0 mph6.4 kmh 30.03 in1016.9 mb 0.00 in0.0 mm 0.00 in0.0 mm 0.85 in21.6 mm
08:53 PM 77.9°F25.5°C 76.3°F24.6°C 95% 1.4 mph SW2.3 kmh SW 4.0 mph6.4 kmh 30.03 in1016.9 mb 0.00 in0.0 mm 0.00 in0.0 mm 0.85 in21.6 mm
08:58 PM 77.8°F25.4°C 76.3°F24.6°C 95% 1.0 mph SSW1.6 kmh SSW 3.0 mph4.8 kmh 30.03 in1016.9 mb 0.00 in0.0 mm 0.00 in0.0 mm 0.85 in21.6 mm
09:03 PM 77.7°F25.4°C 76.4°F24.7°C 96% Calm Calm 3.0 mph4.8 kmh 30.03 in1016.9 mb 0.00 in0.0 mm 0.00 in0.0 mm 0.85 in21.6 mm
09:08 PM 77.6°F25.3°C 76.3°F24.6°C 96% Calm Calm 2.0 mph3.2 kmh 30.03 in1016.9 mb 0.00 in0.0 mm 0.00 in0.0 mm 0.85 in21.6 mm
09:13 PM 77.5°F25.3°C 76.2°F24.6°C 96% 1.0 mph WSW1.6 kmh WSW 1.0 mph1.6 kmh 30.03 in1016.9 mb 0.00 in0.0 mm 0.00 in0.0 mm 0.85 in21.6 mm
09:18 PM 77.3°F25.2°C 76.0°F24.4°C 96% 1.1 mph SW1.8 kmh SW 2.0 mph3.2 kmh 30.03 in1016.9 mb 0.00 in0.0 mm 0.00 in0.0 mm 0.85 in21.6 mm
09:23 PM 77.1°F25.1°C 75.9°F24.4°C 96% 1.4 mph SW2.3 kmh SW 3.0 mph4.8 kmh 30.03 in1016.9 mb 0.00 in0.0 mm 0.00 in0.0 mm 0.85 in21.6 mm
09:28 PM 77.0°F25.0°C 75.7°F24.3°C 96% 2.1 mph SW3.4 kmh SW 4.0 mph6.4 kmh 30.03 in1016.9 mb 0.00 in0.0 mm 0.00 in0.0 mm 0.85 in21.6 mm
09:33 PM 76.8°F24.9°C 75.5°F24.2°C 96% 1.0 mph SW1.6 kmh SW 5.0 mph8.0 kmh 30.03 in1016.9 mb 0.00 in0.0 mm 0.00 in0.0 mm 0.85 in21.6 mm
09:38 PM 76.7°F24.8°C 75.4°F24.1°C 96% 1.0 mph SW1.6 kmh SW 5.0 mph8.0 kmh 30.03 in1016.9 mb 0.00 in0.0 mm 0.00 in0.0 mm 0.85 in21.6 mm
09:43 PM 76.6°F24.8°C 75.3°F24.1°C 96% 1.5 mph SW2.4 kmh SW 5.0 mph8.0 kmh 30.03 in1016.9 mb 0.00 in0.0 mm 0.00 in0.0 mm 0.85 in21.6 mm
09:48 PM 76.6°F24.8°C 75.3°F24.1°C 96% 2.1 mph SW3.4 kmh SW 5.0 mph8.0 kmh 30.03 in1016.9 mb 0.00 in0.0 mm 0.00 in0.0 mm 0.85 in21.6 mm
09:53 PM 76.5°F24.7°C 75.2°F24.0°C 96% 1.5 mph SW2.4 kmh SW 5.0 mph8.0 kmh 30.03 in1016.9 mb 0.00 in0.0 mm 0.00 in0.0 mm 0.85 in21.6 mm
09:58 PM 76.4°F24.7°C 75.1°F23.9°C 96% 1.7 mph SW2.7 kmh SW 5.0 mph8.0 kmh 30.03 in1016.9 mb 0.00 in0.0 mm 0.00 in0.0 mm 0.85 in21.6 mm
10:03 PM 76.4°F24.7°C 75.1°F23.9°C 96% 1.8 mph SSW2.9 kmh SSW 5.0 mph8.0 kmh 30.03 in1016.9 mb 0.00 in0.0 mm 0.00 in0.0 mm 0.85 in21.6 mm
10:08 PM 76.2°F24.6°C 74.9°F23.8°C 96% 1.2 mph WSW1.9 kmh WSW 4.0 mph6.4 kmh 30.03 in1016.9 mb 0.00 in0.0 mm 0.00 in0.0 mm 0.85 in21.6 mm
10:12 PM 76.1°F24.5°C 74.8°F23.8°C 96% 1.3 mph SW2.1 kmh SW 4.0 mph6.4 kmh 30.03 in1016.9 mb 0.00 in0.0 mm 0.00 in0.0 mm 0.85 in21.6 mm
10:17 PM 76.1°F24.5°C 74.8°F23.8°C 96% 1.8 mph SW2.9 kmh SW 4.0 mph6.4 kmh 30.04 in1017.3 mb 0.00 in0.0 mm 0.00 in0.0 mm 0.85 in21.6 mm
10:22 PM 76.0°F24.4°C 74.8°F23.8°C 96% 2.5 mph SW4.0 kmh SW 4.0 mph6.4 kmh 30.04 in1017.3 mb 0.00 in0.0 mm 0.00 in0.0 mm 0.85 in21.6 mm
10:27 PM 75.9°F24.4°C 74.7°F23.7°C 96% 1.6 mph SW2.6 kmh SW 4.0 mph6.4 kmh 30.04 in1017.3 mb 0.00 in0.0 mm 0.00 in0.0 mm 0.85 in21.6 mm
10:32 PM 75.9°F24.4°C 74.7°F23.7°C 96% 1.8 mph SW2.9 kmh SW 5.0 mph8.0 kmh 30.04 in1017.3 mb 0.00 in0.0 mm 0.00 in0.0 mm 0.85 in21.6 mm
10:38 PM 75.9°F24.4°C 74.7°F23.7°C 96% 1.2 mph SW1.9 kmh SW 6.0 mph9.7 kmh 30.04 in1017.3 mb 0.00 in0.0 mm 0.00 in0.0 mm 0.85 in21.6 mm
10:43 PM 75.8°F24.3°C 74.6°F23.7°C 96% 1.7 mph SW2.7 kmh SW 6.0 mph9.7 kmh 30.04 in1017.3 mb 0.00 in0.0 mm 0.00 in0.0 mm 0.85 in21.6 mm
10:47 PM 75.8°F24.3°C 74.6°F23.7°C 96% 1.0 mph SW1.6 kmh SW 6.0 mph9.7 kmh 30.04 in1017.3 mb 0.00 in0.0 mm 0.00 in0.0 mm 0.85 in21.6 mm
10:52 PM 75.7°F24.3°C 74.2°F23.4°C 95% 1.4 mph SW2.3 kmh SW 6.0 mph9.7 kmh 30.04 in1017.3 mb 0.00 in0.0 mm 0.00 in0.0 mm 0.85 in21.6 mm
10:58 PM 75.8°F24.3°C 74.3°F23.5°C 95% 2.2 mph W3.5 kmh W 5.0 mph8.0 kmh 30.04 in1017.3 mb 0.00 in0.0 mm 0.00 in0.0 mm 0.85 in21.6 mm
11:03 PM 75.8°F24.3°C 73.9°F23.3°C 94% 1.7 mph WSW2.7 kmh WSW 5.0 mph8.0 kmh 30.04 in1017.3 mb 0.00 in0.0 mm 0.00 in0.0 mm 0.85 in21.6 mm
11:08 PM 75.9°F24.4°C 73.7°F23.2°C 93% 1.2 mph W1.9 kmh W 5.0 mph8.0 kmh 30.04 in1017.3 mb 0.00 in0.0 mm 0.00 in0.0 mm 0.85 in21.6 mm
11:12 PM 75.9°F24.4°C 73.7°F23.2°C 93% 1.4 mph WSW2.3 kmh WSW 5.0 mph8.0 kmh 30.04 in1017.3 mb 0.00 in0.0 mm 0.00 in0.0 mm 0.85 in21.6 mm
11:18 PM 75.9°F24.4°C 73.4°F23.0°C 92% 1.5 mph WSW2.4 kmh WSW 3.0 mph4.8 kmh 30.04 in1017.3 mb 0.00 in0.0 mm 0.00 in0.0 mm 0.85 in21.6 mm
11:23 PM 76.0°F24.4°C 73.5°F23.1°C 92% 1.0 mph W1.6 kmh W 3.0 mph4.8 kmh 30.04 in1017.3 mb 0.00 in0.0 mm 0.00 in0.0 mm 0.85 in21.6 mm
11:28 PM 76.0°F24.4°C 73.5°F23.1°C 92% 1.0 mph W1.6 kmh W 3.0 mph4.8 kmh 30.05 in1017.6 mb 0.00 in0.0 mm 0.00 in0.0 mm 0.85 in21.6 mm
11:33 PM 76.1°F24.5°C 73.3°F22.9°C 91% 1.4 mph WNW2.3 kmh WNW 4.0 mph6.4 kmh 30.05 in1017.6 mb 0.00 in0.0 mm 0.00 in0.0 mm 0.85 in21.6 mm
11:38 PM 76.1°F24.5°C 73.3°F22.9°C 91% 1.3 mph WSW2.1 kmh WSW 4.0 mph6.4 kmh 30.05 in1017.6 mb 0.00 in0.0 mm 0.00 in0.0 mm 0.85 in21.6 mm
11:43 PM 76.1°F24.5°C 73.3°F22.9°C 91% 1.4 mph SW2.3 kmh SW 4.0 mph6.4 kmh 30.05 in1017.6 mb 0.00 in0.0 mm 0.00 in0.0 mm 0.85 in21.6 mm
11:48 PM 75.8°F24.3°C 73.0°F22.8°C 91% 1.8 mph SW2.9 kmh SW 5.0 mph8.0 kmh 30.05 in1017.6 mb 0.00 in0.0 mm 0.00 in0.0 mm 0.85 in21.6 mm
11:53 PM 75.6°F24.2°C 73.1°F22.8°C 92% 1.6 mph SW2.6 kmh SW 5.0 mph8.0 kmh 30.05 in1017.6 mb 0.00 in0.0 mm 0.00 in0.0 mm 0.85 in21.6 mm
11:58 PM 75.3°F24.1°C 73.1°F22.8°C 93% 1.2 mph SW1.9 kmh SW 5.0 mph8.0 kmh 30.05 in1017.6 mb 0.00 in0.0 mm 0.00 in0.0 mm 0.85 in21.6 mm